Time;durP1;ratioP1;P1;durP2;ratioP2;P2;SDS_P1;SDS_P2;PMS_P1;PMS_P2;Temp;Humidity;BMP_temperature;BMP_pressure;BME280_temperature;BME280_humidity;BME280_pressure;Samples;Min_cycle;Max_cycle;Signal;HPM_P1;HPM_P2
2022/11/15 00:01:08;;;;;;;51.22;28.55;;;;;;;11.47;60.62;101180.41;5041495;27;96853;-69
2022/11/15 00:03:35;;;;;;;52.95;29.63;;;;;;;11.48;60.70;101192.72;5047288;27;97756;-72
2022/11/15 00:06:04;;;;;;;52.15;30.50;;;;;;;11.79;59.89;101174.06;5043654;27;98842;-70
2022/11/15 00:08:31;;;;;;;53.10;29.80;;;;;;;11.76;59.84;101170.66;5049045;27;97651;-71
2022/11/15 00:11:01;;;;;;;53.80;31.42;;;;;;;11.68;60.18;101181.50;5042232;27;96971;-70
2022/11/15 00:13:29;;;;;;;50.30;30.38;;;;;;;11.51;60.57;101171.44;5043538;27;102176;-70
2022/11/15 00:15:58;;;;;;;53.42;29.73;;;;;;;11.63;60.23;101169.28;5038567;27;99334;-70
2022/11/15 00:18:24;;;;;;;48.25;29.73;;;;;;;11.72;60.27;101163.72;5045394;27;97842;-69
2022/11/15 00:20:51;;;;;;;53.60;30.02;;;;;;;11.54;60.33;101147.53;5045008;27;97116;-68
2022/11/15 00:23:17;;;;;;;52.65;29.65;;;;;;;11.72;60.25;101150.47;5041838;27;98984;-70
2022/11/15 00:25:44;;;;;;;52.88;29.33;;;;;;;11.48;60.63;101153.03;5042893;27;100354;-70
2022/11/15 00:28:12;;;;;;;54.53;30.75;;;;;;;11.69;60.03;101155.84;5043139;27;96790;-70
2022/11/15 00:30:39;;;;;;;51.30;30.35;;;;;;;11.92;59.48;101146.25;5047870;27;96840;-69
2022/11/15 00:33:07;;;;;;;51.97;30.38;;;;;;;11.65;60.01;101135.72;5046828;27;97766;-71
2022/11/15 00:35:34;;;;;;;51.50;30.85;;;;;;;11.58;60.34;101143.00;5045858;27;99255;-68
2022/11/15 00:38:02;;;;;;;52.22;30.33;;;;;;;11.62;60.02;101138.47;5044212;27;97003;-70
2022/11/15 00:40:29;;;;;;;53.25;30.88;;;;;;;11.33;60.86;101142.06;5048220;27;96897;-69
2022/11/15 00:42:56;;;;;;;52.53;31.60;;;;;;;11.48;60.49;101136.28;5046905;27;99090;-69
2022/11/15 00:45:24;;;;;;;55.95;30.98;;;;;;;11.63;60.03;101138.41;5046225;27;99182;-70
2022/11/15 00:47:50;;;;;;;53.70;30.05;;;;;;;11.47;60.60;101132.78;5048267;27;96893;-70
2022/11/15 00:50:17;;;;;;;52.88;30.58;;;;;;;11.62;60.33;101128.72;5043445;27;97708;-69
2022/11/15 00:52:44;;;;;;;53.75;30.52;;;;;;;11.60;60.13;101127.94;5050901;27;99104;-70
2022/11/15 00:55:14;;;;;;;55.67;31.63;;;;;;;11.40;60.63;101125.94;5043709;27;100350;-69
2022/11/15 00:57:41;;;;;;;54.95;31.13;;;;;;;11.20;60.84;101128.38;5051930;27;96700;-69
2022/11/15 01:00:08;;;;;;;53.25;30.90;;;;;;;11.54;59.91;101130.78;5051097;27;96707;-70
2022/11/15 01:02:36;;;;;;;51.60;30.60;;;;;;;11.27;60.84;101134.34;5040638;27;99461;-69
2022/11/15 01:05:04;;;;;;;57.10;31.02;;;;;;;11.26;61.17;101127.31;5037769;27;99443;-68
2022/11/15 01:07:30;;;;;;;49.42;28.27;;;;;;;11.32;60.73;101130.63;5048704;27;96869;-71
2022/11/15 01:09:57;;;;;;;57.33;31.10;;;;;;;11.50;60.42;101122.06;5044342;27;96927;-70
2022/11/15 01:12:24;;;;;;;55.05;29.55;;;;;;;11.13;60.96;101118.91;5048945;27;99299;-70
2022/11/15 01:14:50;;;;;;;52.22;30.45;;;;;;;11.37;60.68;101119.88;5048277;27;99221;-69
2022/11/15 01:17:16;;;;;;;52.15;29.77;;;;;;;11.27;60.95;101124.63;5049254;27;96780;-69
2022/11/15 01:19:44;;;;;;;55.17;31.05;;;;;;;11.27;60.71;101121.09;5041361;27;97186;-69
2022/11/15 01:22:11;;;;;;;53.25;30.58;;;;;;;11.31;60.44;101118.31;5048136;27;100049;-71
2022/11/15 01:24:37;;;;;;;58.42;32.58;;;;;;;11.45;60.43;101108.13;5046739;27;98959;-70
2022/11/15 01:27:04;;;;;;;56.72;32.47;;;;;;;11.37;60.58;101102.22;5045872;27;96853;-69
2022/11/15 01:29:31;;;;;;;53.40;29.67;;;;;;;11.54;59.89;101102.53;5050673;27;97776;-69
2022/11/15 01:31:57;;;;;;;54.50;31.08;;;;;;;11.50;59.80;101098.25;5043816;27;99036;-70
2022/11/15 01:34:24;;;;;;;53.80;31.08;;;;;;;11.38;60.06;101095.16;5044275;27;98969;-69
2022/11/15 01:36:52;;;;;;;56.25;31.25;;;;;;;11.13;60.89;101089.81;5042707;27;96785;-69
2022/11/15 01:39:19;;;;;;;57.72;30.52;;;;;;;11.22;60.67;101097.47;5050858;27;97153;-69
2022/11/15 01:41:46;;;;;;;51.70;30.13;;;;;;;11.15;60.56;101096.78;5042279;27;98956;-70
2022/11/15 01:44:46;;;;;;;52.00;30.38;;;;;;;11.26;60.79;101083.19;5045995;27;101112;-70
2022/11/15 01:47:16;;;;;;;51.53;30.45;;;;;;;10.85;61.55;101084.53;5049493;27;97305;-71
2022/11/15 01:49:51;;;;;;;51.30;30.08;;;;;;;11.02;61.33;101073.44;5043112;27;97054;-70
2022/11/15 01:52:22;;;;;;;53.90;30.95;;;;;;;11.02;60.97;101073.44;5039785;27;101337;-69
2022/11/15 01:54:53;;;;;;;50.58;31.08;;;;;;;11.19;60.72;101071.97;5047349;27;98765;-69
2022/11/15 01:57:20;;;;;;;55.70;31.70;;;;;;;11.13;60.35;101060.72;5046473;27;96811;-70
2022/11/15 01:59:47;;;;;;;55.67;30.08;;;;;;;11.08;nan;101060.00;5043544;27;97826;-69
2022/11/15 02:02:16;;;;;;;52.38;31.30;;;;;;;10.87;61.25;101058.03;5037870;27;99222;-69
2022/11/15 02:04:45;;;;;;;51.67;30.50;;;;;;;10.87;61.50;101048.34;5033695;27;99348;-70
2022/11/15 02:07:14;;;;;;;54.67;31.10;;;;;;;11.03;61.18;101048.69;5044643;27;96855;-71
2022/11/15 02:09:43;;;;;;;57.72;32.25;;;;;;;11.15;60.70;101049.19;5040521;27;101172;-71
2022/11/15 02:12:12;;;;;;;54.88;30.55;;;;;;;11.26;60.56;101040.88;5046276;27;98894;-70
2022/11/15 02:14:40;;;;;;;51.30;31.52;;;;;;;10.77;61.64;101049.53;5043124;27;98872;-71
2022/11/15 02:17:24;;;;;;;54.05;30.85;;;;;;;10.92;61.32;101054.34;5045443;27;96947;-69
2022/11/15 02:20:19;;;;;;;62.88;31.50;;;;;;;11.02;60.99;101046.97;5046431;27;97050;-70
2022/11/15 02:22:58;;;;;;;52.72;31.48;;;;;;;10.98;60.94;101047.97;5040806;27;99089;-70
2022/11/15 02:25:40;;;;;;;55.83;30.35;;;;;;;10.86;61.60;101051.88;5045632;27;98897;-69
2022/11/15 02:28:27;;;;;;;60.35;32.35;;;;;;;10.89;61.46;101048.28;5045311;27;96796;-70
2022/11/15 02:30:58;;;;;;;54.47;31.88;;;;;;;11.06;60.90;101051.25;5045940;27;96968;-70
2022/11/15 02:33:35;;;;;;;61.35;32.40;;;;;;;11.13;60.71;101051.00;5046218;27;98833;-70
2022/11/15 02:36:03;;;;;;;56.97;31.48;;;;;;;10.95;60.98;101058.66;5048499;27;99146;-70
2022/11/15 02:38:38;;;;;;;51.15;30.55;;;;;;;11.09;60.74;101054.63;5043737;27;96847;-69
2022/11/15 02:41:10;;;;;;;54.13;31.90;;;;;;;11.16;60.65;101048.22;5039588;27;96857;-70
2022/11/15 02:43:58;;;;;;;57.90;31.77;;;;;;;11.05;60.35;101044.22;5037014;27;98913;-69
2022/11/15 02:49:17;;;;;;;58.40;31.63;;;;;;;10.99;60.78;101036.50;5045989;27;96880;-69
2022/11/15 02:51:46;;;;;;;54.20;30.75;;;;;;;10.98;60.82;101034.75;5042368;27;98808;-69
2022/11/15 02:54:15;;;;;;;57.45;33.00;;;;;;;11.12;60.49;101028.09;5042886;27;99483;-68
2022/11/15 02:56:42;;;;;;;50.15;30.38;;;;;;;11.11;60.64;101033.44;5045611;27;98892;-68
2022/11/15 02:59:24;;;;;;;54.15;31.75;;;;;;;10.94;61.12;101028.72;5043853;27;96974;-68
2022/11/15 03:02:03;;;;;;;52.88;30.65;;;;;;;11.05;60.80;101028.34;5040860;27;96886;-69
2022/11/15 03:04:38;;;;;;;56.65;31.38;;;;;;;10.96;61.19;101028.69;5040395;27;98915;-69
2022/11/15 03:07:11;;;;;;;60.50;32.03;;;;;;;10.91;61.32;101022.66;5044743;27;99313;-69
2022/11/15 03:09:43;;;;;;;54.60;31.08;;;;;;;11.08;61.01;101026.50;5043526;27;97194;-68
2022/11/15 03:12:16;;;;;;;54.28;31.13;;;;;;;10.96;61.09;101026.03;5039950;27;97552;-68
2022/11/15 03:14:52;;;;;;;52.00;29.92;;;;;;;10.78;61.45;101019.53;5044253;27;98210;-70
2022/11/15 03:17:26;;;;;;;53.27;29.67;;;;;;;10.96;61.46;101026.88;5044147;27;99030;-68
2022/11/15 03:19:56;;;;;;;55.42;30.80;;;;;;;10.89;61.46;101024.50;5043856;27;96984;-68
2022/11/15 03:22:26;;;;;;;55.47;31.23;;;;;;;10.96;61.25;101026.03;5046191;27;97293;-69
2022/11/15 03:24:56;;;;;;;60.45;32.53;;;;;;;11.11;60.51;101028.16;5043635;27;99630;-70
2022/11/15 03:27:28;;;;;;;52.35;30.17;;;;;;;11.07;60.87;101029.19;5045502;27;99498;-69
2022/11/15 03:29:58;;;;;;;57.55;31.85;;;;;;;11.12;60.52;101022.81;5045173;27;97122;-70
2022/11/15 03:32:29;;;;;;;53.95;30.40;;;;;;;11.19;60.49;101024.34;5042530;27;98396;-70
2022/11/15 03:34:59;;;;;;;53.03;30.58;;;;;;;11.08;60.39;101025.63;5040457;27;97828;-69
2022/11/15 03:37:33;;;;;;;55.88;31.55;;;;;;;11.07;60.92;101018.59;5043728;27;98929;-69
2022/11/15 03:40:00;;;;;;;55.80;30.88;;;;;;;11.06;60.60;101017.72;5044840;27;97576;-69
2022/11/15 03:42:32;;;;;;;55.45;32.05;;;;;;;10.97;61.05;101017.16;5046097;27;97750;-70
2022/11/15 03:45:07;;;;;;;56.40;31.42;;;;;;;10.96;60.97;101020.75;5043938;27;98866;-69
2022/11/15 03:47:39;;;;;;;53.58;31.20;;;;;;;11.04;60.96;101016.03;5046075;27;100373;-68
2022/11/15 03:50:11;;;;;;;55.80;30.73;;;;;;;11.17;60.54;101010.28;5046122;27;96808;-69
2022/11/15 03:52:38;;;;;;;56.00;31.17;;;;;;;10.93;61.22;101015.53;5046841;27;96641;-70
2022/11/15 03:55:07;;;;;;;53.67;29.83;;;;;;;11.00;60.67;101012.66;5047719;27;98980;-69
2022/11/15 03:57:34;;;;;;;54.97;30.38;;;;;;;11.11;60.48;101012.28;5041513;27;97821;-69
2022/11/15 04:00:00;;;;;;;49.78;29.17;;;;;;;11.00;60.94;101003.84;5049206;27;96756;-69
2022/11/15 04:02:28;;;;;;;53.10;30.25;;;;;;;11.02;60.73;101004.69;5043850;27;96822;-71
2022/11/15 04:04:55;;;;;;;54.15;29.88;;;;;;;10.99;60.99;101007.41;5040044;27;99361;-71
2022/11/15 04:07:22;;;;;;;51.65;30.35;;;;;;;10.69;61.73;101002.22;5042018;27;101086;-70
2022/11/15 04:10:03;;;;;;;56.13;30.38;;;;;;;10.99;60.85;101010.03;5043705;27;97003;-70
2022/11/15 04:12:33;;;;;;;55.15;32.55;;;;;;;10.94;61.15;101001.41;5050627;27;96772;-71
2022/11/15 04:15:10;;;;;;;52.95;30.60;;;;;;;11.37;60.18;101006.97;5043715;27;99340;-69
2022/11/15 04:17:38;;;;;;;51.08;29.65;;;;;;;10.99;60.63;101000.34;5048478;27;99026;-70
2022/11/15 04:25:39;;;;;;;52.42;30.05;;;;;;;10.85;61.29;101001.69;5050597;27;97202;-70
2022/11/15 04:28:06;;;;;;;55.33;30.25;;;;;;;11.10;60.74;100992.91;5047307;27;98785;-69
2022/11/15 04:30:32;;;;;;;51.95;29.95;;;;;;;11.24;60.26;101002.16;5048912;27;96840;-70
2022/11/15 04:32:59;;;;;;;51.60;30.13;;;;;;;11.15;60.49;101001.56;5044054;27;97192;-69
2022/11/15 04:35:27;;;;;;;48.80;28.73;;;;;;;11.19;60.71;100995.25;5043867;27;100021;-69
2022/11/15 04:37:53;;;;;;;51.67;29.00;;;;;;;10.90;60.99;100992.69;5049617;27;98831;-69
2022/11/15 04:40:19;;;;;;;;;;;;;;;10.95;61.29;100993.44;5046559;27;96940;-70
2022/11/15 04:42:45;;;;;;;50.03;27.80;;;;;;;10.90;61.24;100994.47;5051237;27;97843;-70
2022/11/15 04:45:12;;;;;;;52.85;28.25;;;;;;;11.16;60.58;100987.41;5043422;27;98918;-72
2022/11/15 04:47:38;;;;;;;52.83;29.60;;;;;;;11.15;60.42;100984.84;5048012;27;98861;-70
2022/11/15 04:50:06;;;;;;;50.38;28.58;;;;;;;10.85;61.22;100981.41;5044793;27;96890;-70
2022/11/15 04:52:33;;;;;;;47.10;27.70;;;;;;;10.76;61.39;100979.94;5048159;27;97042;-68
2022/11/15 04:55:00;;;;;;;56.67;30.38;;;;;;;11.08;60.60;100978.88;5044492;27;101306;-70
2022/11/15 04:57:27;;;;;;;54.25;29.98;;;;;;;11.01;60.88;100972.06;5040930;27;99238;-69
2022/11/15 04:59:53;;;;;;;51.30;29.23;;;;;;;10.89;60.70;100983.06;5051031;27;96739;-68
2022/11/15 05:02:19;;;;;;;49.35;27.77;;;;;;;10.99;61.04;100979.19;5048685;27;96927;-69
2022/11/15 05:04:45;;;;;;;54.72;30.33;;;;;;;11.04;60.63;100986.97;5047006;27;99707;-70
2022/11/15 05:07:12;;;;;;;53.80;30.02;;;;;;;11.13;60.25;100986.66;5051256;27;98804;-70
2022/11/15 05:09:40;;;;;;;47.97;27.70;;;;;;;10.93;61.00;100984.69;5050081;27;96891;-69
2022/11/15 05:12:07;;;;;;;48.00;27.02;;;;;;;11.11;60.35;100991.13;5044992;27;98752;-69
2022/11/15 05:14:33;;;;;;;53.53;29.75;;;;;;;11.18;60.01;100987.34;5046402;27;100367;-69
2022/11/15 05:16:59;;;;;;;50.70;29.33;;;;;;;11.05;60.36;100989.56;5048775;27;98983;-69
2022/11/15 05:19:26;;;;;;;49.78;29.05;;;;;;;11.00;60.46;100987.97;5043240;27;96825;-71
2022/11/15 05:21:55;;;;;;;49.10;28.42;;;;;;;10.88;60.99;100991.03;5042191;27;96892;-67
2022/11/15 05:24:21;;;;;;;55.05;29.50;;;;;;;11.09;60.30;100988.53;5044384;27;99051;-68
2022/11/15 05:26:50;;;;;;;51.00;28.88;;;;;;;10.84;61.12;100992.91;5051515;27;100353;-70
2022/11/15 05:29:16;;;;;;;48.78;28.65;;;;;;;10.93;60.72;100994.38;5046694;27;97315;-71
2022/11/15 05:31:43;;;;;;;50.33;28.80;;;;;;;10.77;61.16;100984.31;5040722;27;97863;-70
2022/11/15 05:34:10;;;;;;;52.83;28.95;;;;;;;10.83;61.19;100995.63;5043680;27;99358;-71
2022/11/15 05:36:38;;;;;;;48.95;27.75;;;;;;;10.91;61.03;100988.28;5039998;27;99216;-70
2022/11/15 05:39:07;;;;;;;50.95;27.35;;;;;;;10.73;61.61;100989.75;5044816;27;97040;-72
2022/11/15 05:41:37;;;;;;;47.63;27.60;;;;;;;10.70;61.97;100985.41;5042668;27;98318;-70
2022/11/15 05:44:08;;;;;;;51.78;28.95;;;;;;;10.87;61.18;100984.00;5046978;27;101132;-70
2022/11/15 05:46:36;;;;;;;50.80;28.52;;;;;;;10.94;60.74;100982.91;5041864;27;98822;-71
2022/11/15 05:49:02;;;;;;;50.97;28.95;;;;;;;11.01;60.25;100979.16;5041153;27;97238;-70
2022/11/15 05:51:30;;;;;;;51.50;28.08;;;;;;;10.74;61.05;100987.06;5049003;27;97238;-70
2022/11/15 05:53:59;;;;;;;50.03;28.75;;;;;;;10.83;60.83;100985.88;5041158;27;99278;-70
2022/11/15 05:56:26;;;;;;;54.67;29.38;;;;;;;11.06;60.02;100983.34;5043819;27;100635;-69
2022/11/15 05:58:54;;;;;;;52.17;29.13;;;;;;;10.86;60.57;100992.84;5046093;27;96966;-70
2022/11/15 06:01:22;;;;;;;51.67;29.50;;;;;;;11.03;60.01;100990.50;5042539;27;97230;-70
2022/11/15 06:03:48;;;;;;;51.75;29.48;;;;;;;10.82;60.74;100985.97;5042192;27;98880;-70
2022/11/15 06:06:15;;;;;;;52.03;30.65;;;;;;;10.89;60.40;100998.06;5042284;27;99366;-70
2022/11/15 06:08:41;;;;;;;56.55;29.48;;;;;;;11.07;59.87;100994.81;5037751;27;97747;-70
2022/11/15 06:11:08;;;;;;;53.00;31.00;;;;;;;11.02;59.79;100992.31;5040847;27;97366;-69
2022/11/15 06:13:35;;;;;;;52.78;27.92;;;;;;;11.10;60.18;100990.25;5040108;27;99347;-70
2022/11/15 06:16:01;;;;;;;50.78;28.92;;;;;;;11.04;60.00;100994.88;5043777;27;98877;-70
2022/11/15 06:18:32;;;;;;;50.55;28.30;;;;;;;11.09;60.30;100992.97;5039161;27;97857;-69
2022/11/15 06:21:00;;;;;;;50.95;28.52;;;;;;;10.95;60.59;100989.94;5036979;27;98645;-70
2022/11/15 06:23:27;;;;;;;51.30;30.17;;;;;;;11.07;60.22;100992.16;5035554;27;98889;-69
2022/11/15 06:25:53;;;;;;;58.60;30.02;;;;;;;11.02;60.02;101000.25;5044600;27;101213;-71
2022/11/15 06:28:20;;;;;;;48.42;28.70;;;;;;;11.06;60.05;101001.88;5044243;27;98433;-69
2022/11/15 06:30:46;;;;;;;51.47;29.00;;;;;;;11.19;59.82;101000.53;5044768;27;97546;-70
2022/11/15 06:33:13;;;;;;;51.28;29.30;;;;;;;11.26;59.95;101006.47;5045363;27;98864;-70
2022/11/15 06:35:41;;;;;;;47.35;27.77;;;;;;;11.05;60.01;101001.91;5046137;27;98922;-70
2022/11/15 06:38:09;;;;;;;53.05;29.13;;;;;;;11.21;59.98;101010.22;5048319;27;96775;-70
2022/11/15 06:40:36;;;;;;;50.63;28.58;;;;;;;11.12;60.06;101006.09;5041610;27;97216;-71
2022/11/15 06:43:05;;;;;;;56.67;29.65;;;;;;;11.11;60.06;101001.69;5045064;27;98870;-69
2022/11/15 06:45:32;;;;;;;51.58;28.80;;;;;;;10.94;61.02;101009.34;5046315;27;99152;-73
2022/11/15 06:47:59;;;;;;;50.90;29.33;;;;;;;10.98;60.81;101005.66;5047832;27;96877;-70
2022/11/15 06:50:25;;;;;;;55.03;29.77;;;;;;;11.16;60.10;101005.91;5045698;27;97148;-71
2022/11/15 06:52:54;;;;;;;52.28;29.13;;;;;;;11.03;60.49;101014.31;5049863;27;99537;-70
2022/11/15 06:55:21;;;;;;;51.17;28.67;;;;;;;11.07;60.47;101014.19;5043083;27;99133;-72
2022/11/15 06:57:49;;;;;;;56.03;29.35;;;;;;;11.53;58.95;101013.47;5045843;27;97297;-70
2022/11/15 07:00:17;;;;;;;57.38;28.48;;;;;;;11.54;58.69;101014.34;5043186;27;97008;-70
2022/11/15 07:02:44;;;;;;;53.35;29.83;;;;;;;11.33;59.45;101010.66;5042662;27;98115;-70
2022/11/15 07:05:11;;;;;;;50.08;28.50;;;;;;;11.46;59.30;101017.25;5036833;27;98791;-70
2022/11/15 07:07:37;;;;;;;66.47;30.60;;;;;;;11.36;59.10;101015.81;5046973;27;97578;-70
2022/11/15 07:10:07;;;;;;;48.67;27.77;;;;;;;11.27;60.05;101020.56;5038439;27;96965;-71
2022/11/15 07:12:34;;;;;;;51.67;28.50;;;;;;;11.38;59.34;101019.28;5036406;27;99072;-72
2022/11/15 07:15:00;;;;;;;48.97;28.63;;;;;;;11.62;58.94;101017.56;5039689;27;97666;-71
2022/11/15 07:17:27;;;;;;;48.88;28.20;;;;;;;11.35;59.32;101023.84;5047116;27;97117;-71
2022/11/15 07:19:54;;;;;;;54.80;30.75;;;;;;;11.19;59.98;101024.34;5042608;27;97197;-70
2022/11/15 07:22:20;;;;;;;47.88;27.80;;;;;;;11.62;58.85;101024.66;5046412;27;99393;-70
2022/11/15 07:24:47;;;;;;;54.55;28.40;;;;;;;11.27;59.83;101026.72;5045782;27;99118;-70
2022/11/15 07:27:15;;;;;;;48.80;29.10;;;;;;;11.34;59.52;101033.56;5048282;27;96736;-70
2022/11/15 07:29:42;;;;;;;49.88;29.33;;;;;;;11.65;58.93;101029.84;5043076;27;96815;-71
2022/11/15 07:32:08;;;;;;;50.70;29.20;;;;;;;11.62;58.99;101028.13;5049579;27;99973;-70
2022/11/15 07:34:39;;;;;;;49.50;28.52;;;;;;;11.85;58.71;101027.38;5046520;27;98371;-70
2022/11/15 07:37:06;;;;;;;52.10;29.77;;;;;;;11.67;58.93;101023.56;5049966;27;96882;-70
2022/11/15 07:39:32;;;;;;;49.55;28.38;;;;;;;11.90;58.42;101025.41;5051211;27;96968;-71
2022/11/15 07:44:41;;;;;;;53.35;27.85;;;;;;;11.91;58.11;101028.00;5049408;27;97759;-71
2022/11/15 07:47:08;;;;;;;52.75;28.73;;;;;;;11.91;58.48;101035.97;5047897;27;97251;-70
2022/11/15 07:49:34;;;;;;;49.25;27.27;;;;;;;12.08;57.79;101024.72;5051413;27;97041;-70
2022/11/15 07:52:01;;;;;;;50.28;28.23;;;;;;;11.90;58.22;101028.06;5052332;27;99095;-71
2022/11/15 07:54:27;;;;;;;49.28;29.33;;;;;;;12.12;57.89;101021.06;5050423;27;100245;-71
2022/11/15 07:56:54;;;;;;;48.15;27.80;;;;;;;12.29;57.47;101020.41;5047486;27;96851;-70
2022/11/15 07:59:21;;;;;;;50.72;28.48;;;;;;;12.25;57.54;101024.97;5049549;27;96875;-70
2022/11/15 08:01:49;;;;;;;47.00;27.27;;;;;;;12.45;57.15;101012.75;5047729;27;99060;-70
2022/11/15 08:04:19;;;;;;;44.47;27.15;;;;;;;12.38;57.27;101013.00;5047898;27;97970;-71
2022/11/15 08:06:45;;;;;;;49.42;28.55;;;;;;;12.12;58.10;101021.06;5049789;27;96740;-71
2022/11/15 08:09:12;;;;;;;53.10;28.63;;;;;;;12.18;57.73;101012.88;5050821;27;96893;-72
2022/11/15 08:11:39;;;;;;;52.28;29.05;;;;;;;12.50;56.91;101010.78;5049716;27;98948;-69
2022/11/15 08:14:05;;;;;;;45.55;27.25;;;;;;;12.71;56.21;101008.16;5046985;27;98003;-71
2022/11/15 08:16:32;;;;;;;52.53;27.50;;;;;;;12.81;56.11;101002.44;5054222;27;97110;-73
2022/11/15 08:19:00;;;;;;;47.03;26.83;;;;;;;13.03;55.51;101006.84;5055241;27;96744;-71
2022/11/15 08:21:26;;;;;;;46.05;27.67;;;;;;;12.97;55.76;101009.75;5054734;27;99514;-69
2022/11/15 08:23:53;;;;;;;50.67;28.30;;;;;;;13.00;55.58;101008.72;5053731;27;99576;-68
2022/11/15 08:26:19;;;;;;;46.95;27.55;;;;;;;12.91;56.24;101007.34;5044188;27;96802;-71
2022/11/15 08:28:46;;;;;;;46.50;26.38;;;;;;;12.85;56.32;101007.59;5047251;27;96786;-70
2022/11/15 08:31:16;;;;;;;45.78;26.85;;;;;;;13.05;55.77;101007.63;5048170;27;98995;-69
2022/11/15 08:33:45;;;;;;;44.17;26.80;;;;;;;12.99;55.95;101002.59;5053280;27;98884;-72
2022/11/15 08:36:16;;;;;;;39.83;24.63;;;;;;;13.14;55.54;101001.97;5044085;27;96837;-70
2022/11/15 08:38:42;;;;;;;44.65;26.33;;;;;;;13.25;55.72;101003.31;5051446;27;96810;-72
2022/11/15 08:41:14;;;;;;;46.80;24.65;;;;;;;13.61;54.44;101007.03;5043093;27;99034;-71
2022/11/15 08:43:40;;;;;;;48.05;25.63;;;;;;;13.53;54.65;101006.50;5046130;27;98770;-71
2022/11/15 08:46:09;;;;;;;40.10;24.05;;;;;;;13.61;54.39;101007.03;5046733;27;97306;-70
2022/11/15 08:48:38;;;;;;;41.22;24.13;;;;;;;13.37;54.56;101008.09;5044337;27;96909;-70
2022/11/15 08:51:06;;;;;;;44.65;25.90;;;;;;;13.41;54.80;101004.38;5047463;27;99379;-70
2022/11/15 08:53:34;;;;;;;42.53;25.70;;;;;;;13.73;53.97;101003.81;5053763;27;97577;-71
2022/11/15 08:56:01;;;;;;;43.42;24.48;;;;;;;13.87;53.87;101008.53;5055559;27;97109;-71
2022/11/15 08:58:28;;;;;;;43.15;24.15;;;;;;;13.82;53.70;101007.88;5049963;27;96763;-72
2022/11/15 09:00:54;;;;;;;38.72;23.48;;;;;;;13.63;54.11;101014.94;5050301;27;99293;-71
2022/11/15 09:03:21;;;;;;;41.92;23.05;;;;;;;13.73;54.14;101014.44;5036757;27;101242;-71
2022/11/15 09:05:47;;;;;;;39.47;23.08;;;;;;;13.98;53.37;101010.72;5046241;27;99330;-71
2022/11/15 09:08:14;;;;;;;40.33;23.35;;;;;;;14.16;53.20;101018.72;5041325;27;96932;-70
2022/11/15 09:10:41;;;;;;;38.30;22.70;;;;;;;14.21;52.80;101002.53;5041286;27;99251;-70
2022/11/15 09:13:08;;;;;;;34.75;22.27;;;;;;;14.28;52.57;101009.31;5040630;27;98945;-71
2022/11/15 09:15:34;;;;;;;43.83;23.45;;;;;;;14.11;53.32;101006.56;5041450;27;99584;-72
2022/11/15 09:18:01;;;;;;;34.78;21.55;;;;;;;14.13;52.79;101002.03;5048027;27;97525;-70
2022/11/15 09:20:27;;;;;;;35.63;21.17;;;;;;;14.05;52.95;101004.16;5048174;27;100291;-70
2022/11/15 09:22:53;;;;;;;34.38;22.00;;;;;;;14.30;52.56;101007.44;5042999;27;99357;-70
2022/11/15 09:25:20;;;;;;;32.97;21.17;;;;;;;14.59;52.18;101001.63;5046115;27;96861;-70
2022/11/15 09:27:47;;;;;;;37.30;23.23;;;;;;;14.72;51.54;101001.91;5047451;27;97368;-69
2022/11/15 09:30:14;;;;;;;36.10;22.42;;;;;;;14.60;51.71;101006.00;5050267;27;99029;-70
2022/11/15 09:32:40;;;;;;;34.20;20.77;;;;;;;14.67;51.54;101011.91;5042596;27;98831;-70
2022/11/15 09:35:07;;;;;;;33.05;19.95;;;;;;;14.49;51.94;101007.47;5050832;27;96952;-70
2022/11/15 09:37:34;;;;;;;33.88;19.50;;;;;;;14.99;51.22;101016.50;5044648;27;96999;-70
2022/11/15 09:40:00;;;;;;;32.78;18.77;;;;;;;14.68;51.80;101014.50;5049598;27;98870;-70
2022/11/15 09:42:39;;;;;;;30.55;18.85;;;;;;;14.79;51.14;101015.75;5043067;27;98872;-68
2022/11/15 09:45:15;;;;;;;31.55;18.73;;;;;;;14.73;51.44;101012.47;5048589;27;98145;-70
2022/11/15 09:47:59;;;;;;;37.03;20.40;;;;;;;14.75;51.62;101009.75;5045656;27;97079;-70
2022/11/15 09:50:35;;;;;;;34.28;20.02;;;;;;;14.93;51.19;100997.31;5042176;27;99060;-69
2022/11/15 09:53:02;;;;;;;34.40;19.38;;;;;;;14.88;51.12;100994.03;5040473;27;97598;-70
2022/11/15 09:55:38;;;;;;;29.55;19.33;;;;;;;14.89;51.79;100999.28;5041723;27;96745;-70
2022/11/15 09:58:16;;;;;;;30.23;19.23;;;;;;;15.24;50.94;100992.19;5038459;27;97038;-70
2022/11/15 10:00:51;;;;;;;31.23;17.95;;;;;;;15.57;50.22;100994.09;5042031;27;99329;-69
2022/11/15 10:03:24;;;;;;;31.38;17.95;;;;;;;15.66;49.78;100983.81;5038666;27;99303;-71
2022/11/15 10:05:54;;;;;;;33.38;17.45;;;;;;;15.57;49.97;100984.28;5034680;27;99180;-70
2022/11/15 10:08:35;;;;;;;29.20;18.38;;;;;;;15.74;49.26;100988.75;5048387;27;96843;-69
2022/11/15 10:11:04;;;;;;;32.08;17.90;;;;;;;15.63;49.57;100981.31;5041205;27;99008;-68
2022/11/15 10:13:34;;;;;;;25.05;16.83;;;;;;;15.57;49.77;100978.97;5047362;27;99211;-70
2022/11/15 10:16:11;;;;;;;28.67;17.40;;;;;;;15.73;49.65;100969.25;5041818;27;97052;-72
2022/11/15 10:18:51;;;;;;;27.92;17.05;;;;;;;15.88;49.11;100971.06;5046980;27;97190;-70
2022/11/15 10:21:21;;;;;;;29.35;16.85;;;;;;;16.00;49.08;100971.38;5036776;27;99401;-71
2022/11/15 10:23:48;;;;;;;32.67;17.63;;;;;;;16.04;48.82;100957.78;5037355;27;98791;-71
2022/11/15 10:26:18;;;;;;;29.80;17.33;;;;;;;16.14;48.56;100955.47;5046336;27;101661;-71
2022/11/15 10:28:44;;;;;;;31.77;17.88;;;;;;;16.29;48.29;100946.59;5037560;27;98549;-68
2022/11/15 10:31:25;;;;;;;28.23;16.45;;;;;;;16.30;47.86;100948.34;5046360;27;98966;-69
2022/11/15 10:33:52;;;;;;;27.95;17.33;;;;;;;16.11;48.25;100940.50;5038515;27;100722;-70
2022/11/15 10:36:23;;;;;;;27.45;16.00;;;;;;;16.24;48.55;100944.22;5046985;27;96946;-69
2022/11/15 10:38:58;;;;;;;29.38;16.05;;;;;;;16.29;48.12;100925.28;5035430;27;97240;-70
2022/11/15 10:41:34;;;;;;;25.92;16.42;;;;;;;16.56;47.66;100922.84;5046861;27;98160;-69
2022/11/15 10:44:26;;;;;;;27.08;16.13;;;;;;;16.55;47.59;100929.13;5037831;27;98862;-68
2022/11/15 10:47:28;;;;;;;25.33;15.50;;;;;;;16.65;47.18;100930.38;5043200;27;96809;-69
2022/11/15 10:50:01;;;;;;;24.83;16.10;;;;;;;16.29;48.08;100918.13;4952252;28;98980;-68
2022/11/15 10:52:29;;;;;;;27.38;15.70;;;;;;;16.60;47.73;100914.66;5021630;27;98835;-68
2022/11/15 10:55:00;;;;;;;27.33;15.73;;;;;;;16.45;47.95;100907.47;5033345;27;98220;-69
2022/11/15 10:57:29;;;;;;;22.10;14.52;;;;;;;16.43;48.06;100905.84;5045392;27;96844;-70
2022/11/15 10:59:58;;;;;;;24.30;15.75;;;;;;;16.31;48.50;100902.94;5044320;27;96845;-71
2022/11/15 11:02:35;;;;;;;25.38;15.70;;;;;;;16.68;47.77;100901.69;5046648;27;98980;-70
2022/11/15 11:05:02;;;;;;;27.85;16.25;;;;;;;16.86;47.57;100898.91;5042197;27;98886;-70
2022/11/15 11:07:31;;;;;;;28.80;16.13;;;;;;;16.93;47.44;100900.28;5038756;27;99090;-70
2022/11/15 11:10:00;;;;;;;27.45;15.52;;;;;;;16.69;47.62;100892.75;5042769;27;96907;-69
2022/11/15 11:12:31;;;;;;;26.90;15.15;;;;;;;16.75;47.57;100888.84;5042353;27;99371;-69
2022/11/15 11:14:59;;;;;;;27.00;15.70;;;;;;;16.72;47.88;100881.03;5044869;27;98819;-70
2022/11/15 11:17:37;;;;;;;25.45;15.05;;;;;;;16.76;47.71;100884.38;5048927;27;96873;-69
2022/11/15 11:20:11;;;;;;;24.45;15.32;;;;;;;16.70;47.66;100882.94;5041189;27;98023;-69
2022/11/15 11:22:48;;;;;;;26.52;15.10;;;;;;;16.73;47.68;100878.28;5040073;27;98532;-69
2022/11/15 11:25:31;;;;;;;24.77;15.27;;;;;;;16.71;47.85;100874.84;5036071;27;99103;-69
2022/11/15 11:28:15;;;;;;;25.58;15.68;;;;;;;16.59;48.12;100872.00;5045737;27;97388;-69
2022/11/15 11:30:51;;;;;;;24.85;15.38;;;;;;;16.80;48.00;100873.44;5046655;27;97782;-68